createdAt,value
2022-12-07T00:01:28.321Z,16.13
2022-12-07T00:04:01.539Z,16.27
2022-12-07T00:06:28.751Z,16.92
2022-12-07T00:08:56.343Z,16.05
2022-12-07T00:11:24.885Z,15.43
2022-12-07T00:13:57.510Z,16.23
2022-12-07T00:16:28.109Z,15.65
2022-12-07T00:18:55.775Z,16.90
2022-12-07T00:21:26.044Z,15.82
2022-12-07T00:23:54.992Z,17.27
2022-12-07T00:26:27.777Z,16.30
2022-12-07T00:28:58.148Z,16.20
2022-12-07T00:31:28.999Z,15.90
2022-12-07T00:33:56.840Z,16.30
2022-12-07T00:36:27.156Z,16.58
2022-12-07T00:38:56.220Z,15.30
2022-12-07T00:41:25.787Z,16.58
2022-12-07T00:43:53.656Z,16.95
2022-12-07T00:46:22.546Z,16.03
2022-12-07T00:48:50.687Z,17.98
2022-12-07T00:51:19.464Z,16.92
2022-12-07T00:53:47.279Z,17.30
2022-12-07T00:56:17.227Z,16.92
2022-12-07T00:58:44.736Z,16.35
2022-12-07T01:01:12.305Z,17.27
2022-12-07T01:03:39.758Z,17.08
2022-12-07T01:06:07.362Z,16.25
2022-12-07T01:08:34.584Z,17.98
2022-12-07T01:11:04.708Z,16.73
2022-12-07T01:13:32.815Z,17.40
2022-12-07T01:16:01.803Z,17.10
2022-12-07T01:18:30.922Z,18.45
2022-12-07T01:21:08.936Z,16.85
2022-12-07T01:23:36.862Z,16.75
2022-12-07T01:26:07.523Z,16.75
2022-12-07T01:28:34.789Z,17.15
2022-12-07T01:31:18.273Z,16.45
2022-12-07T01:33:48.493Z,16.15
2022-12-07T01:36:31.392Z,16.80
2022-12-07T01:39:01.559Z,16.83
2022-12-07T01:41:32.206Z,16.23
2022-12-07T01:44:16.458Z,15.27
2022-12-07T01:46:56.754Z,16.70
2022-12-07T01:49:44.812Z,17.10
2022-12-07T01:52:18.725Z,16.20
2022-12-07T01:54:47.761Z,16.80
2022-12-07T01:57:16.900Z,17.00
2022-12-07T01:59:45.929Z,17.10
2022-12-07T02:02:23.874Z,16.90
2022-12-07T02:04:54.247Z,17.42
2022-12-07T02:07:22.703Z,17.00
2022-12-07T02:09:50.020Z,19.38
2022-12-07T02:12:17.524Z,17.98
2022-12-07T02:14:44.741Z,17.97
2022-12-07T02:17:19.699Z,17.15
2022-12-07T02:20:12.268Z,18.50
2022-12-07T02:22:39.431Z,18.08
2022-12-07T02:25:38.491Z,18.97
2022-12-07T02:28:14.678Z,19.45
2022-12-07T02:30:47.942Z,16.10
2022-12-07T02:33:51.035Z,17.10
2022-12-07T02:36:31.270Z,17.90
2022-12-07T02:39:04.112Z,18.13
2022-12-07T02:41:45.054Z,18.63
2022-12-07T02:44:15.730Z,18.20
2022-12-07T02:46:48.232Z,18.35
2022-12-07T02:49:16.167Z,17.27
2022-12-07T02:51:46.714Z,17.80
2022-12-07T02:54:17.191Z,18.52
2022-12-07T02:57:01.463Z,17.58
2022-12-07T02:59:57.456Z,17.90
2022-12-07T03:02:27.406Z,18.10
2022-12-07T03:04:55.164Z,17.90
2022-12-07T03:07:27.706Z,18.50
2022-12-07T03:10:07.083Z,17.35
2022-12-07T03:13:26.560Z,18.65
2022-12-07T03:15:56.823Z,18.08
2022-12-07T03:18:26.979Z,17.67
2022-12-07T03:20:57.809Z,18.25
2022-12-07T03:23:27.434Z,18.67
2022-12-07T03:26:00.806Z,16.65
2022-12-07T03:28:33.298Z,16.25
2022-12-07T03:31:20.862Z,16.52
2022-12-07T03:34:18.824Z,17.80
2022-12-07T03:36:55.164Z,17.13
2022-12-07T03:39:42.059Z,16.92
2022-12-07T03:42:11.305Z,17.23
2022-12-07T03:44:39.539Z,16.30
2022-12-07T03:47:09.804Z,17.50
2022-12-07T03:50:07.046Z,17.30
2022-12-07T03:52:40.287Z,16.77
2022-12-07T03:55:21.401Z,17.80
2022-12-07T03:57:52.734Z,17.27
2022-12-07T04:00:20.515Z,16.63
2022-12-07T04:02:48.363Z,18.00
2022-12-07T04:05:15.648Z,18.13
2022-12-07T04:07:43.067Z,16.80
2022-12-07T04:10:13.573Z,17.27
2022-12-07T04:12:40.916Z,18.33
2022-12-07T04:15:08.887Z,16.23
2022-12-07T04:17:36.134Z,16.60
2022-12-07T04:20:05.098Z,16.65
2022-12-07T04:22:32.678Z,17.03
2022-12-07T04:24:59.947Z,17.03
2022-12-07T04:27:27.257Z,17.00
2022-12-07T04:29:54.620Z,17.80
2022-12-07T04:32:22.194Z,16.80
2022-12-07T04:34:54.029Z,16.58
2022-12-07T04:37:23.363Z,17.63
2022-12-07T04:39:50.500Z,17.02
2022-12-07T04:42:17.748Z,18.40
2022-12-07T04:44:45.562Z,18.73
2022-12-07T04:47:12.870Z,16.90
2022-12-07T04:49:40.125Z,17.38
2022-12-07T04:52:07.392Z,16.60
2022-12-07T04:54:34.731Z,16.92
2022-12-07T04:57:01.985Z,17.80
2022-12-07T04:59:29.295Z,18.20
2022-12-07T05:01:56.505Z,18.42
2022-12-07T05:04:23.735Z,18.23
2022-12-07T05:06:50.918Z,17.40
2022-12-07T05:09:18.170Z,17.33
2022-12-07T05:11:45.456Z,16.85
2022-12-07T05:14:19.101Z,18.17
2022-12-07T05:16:48.705Z,16.90
2022-12-07T05:19:16.418Z,16.92
2022-12-07T05:21:43.715Z,18.85
2022-12-07T05:24:13.464Z,17.75
2022-12-07T05:26:41.313Z,17.95
2022-12-07T05:29:11.006Z,18.63
2022-12-07T05:31:38.183Z,18.35
2022-12-07T05:34:05.396Z,17.92
2022-12-07T05:36:32.796Z,17.38
2022-12-07T05:39:00.435Z,17.27
2022-12-07T05:41:46.480Z,18.52
2022-12-07T05:44:13.981Z,19.13
2022-12-07T05:46:41.199Z,16.73
2022-12-07T05:49:08.453Z,17.58
2022-12-07T05:51:35.638Z,18.47
2022-12-07T05:54:02.840Z,17.38
2022-12-07T05:56:30.067Z,17.10
2022-12-07T05:59:15.688Z,16.85
2022-12-07T06:01:43.035Z,18.20
2022-12-07T06:04:10.409Z,16.58
2022-12-07T06:06:38.120Z,18.33
2022-12-07T06:09:05.561Z,17.63
2022-12-07T06:11:51.169Z,17.70
2022-12-07T06:14:18.422Z,17.48
2022-12-07T06:16:45.714Z,17.65
2022-12-07T06:19:13.033Z,19.02
2022-12-07T06:21:40.571Z,18.07
2022-12-07T06:24:07.927Z,17.23
2022-12-07T06:26:35.119Z,17.30
2022-12-07T06:29:02.348Z,15.90
2022-12-07T06:31:29.698Z,17.30
2022-12-07T06:34:05.548Z,16.80
2022-12-07T06:36:33.350Z,15.88
2022-12-07T06:39:00.564Z,16.45
2022-12-07T06:41:27.849Z,17.10
2022-12-07T06:43:56.412Z,16.90
2022-12-07T06:46:24.781Z,17.15
2022-12-07T06:48:52.022Z,16.60
2022-12-07T06:51:19.850Z,17.55
2022-12-07T06:53:47.029Z,17.53
2022-12-07T06:56:14.276Z,17.63
2022-12-07T06:58:42.019Z,17.17
2022-12-07T07:01:13.840Z,18.40
2022-12-07T07:03:41.832Z,17.40
2022-12-07T07:06:09.364Z,17.20
2022-12-07T07:08:37.500Z,17.63
2022-12-07T07:11:05.318Z,17.83
2022-12-07T07:13:32.747Z,18.13
2022-12-07T07:16:00.411Z,18.08
2022-12-07T07:18:27.932Z,18.93
2022-12-07T07:20:55.764Z,18.00
2022-12-07T07:23:23.210Z,19.45
2022-12-07T07:25:50.565Z,19.42
2022-12-07T07:28:18.387Z,18.63
2022-12-07T07:30:46.158Z,19.45
2022-12-07T07:33:13.718Z,19.10
2022-12-07T07:35:41.112Z,19.45
2022-12-07T07:38:08.982Z,19.13
2022-12-07T07:40:36.908Z,17.40
2022-12-07T07:43:04.160Z,17.52
2022-12-07T07:45:31.585Z,16.95
2022-12-07T07:47:58.933Z,16.80
2022-12-07T07:50:26.172Z,16.80
2022-12-07T07:52:53.573Z,16.63
2022-12-07T07:55:20.799Z,17.25
2022-12-07T07:57:54.192Z,17.40
2022-12-07T08:00:22.546Z,17.63
2022-12-07T08:02:49.869Z,17.05
2022-12-07T08:05:17.681Z,18.00
2022-12-07T08:07:45.413Z,17.70
2022-12-07T08:10:13.970Z,16.80
2022-12-07T08:13:02.275Z,18.20
2022-12-07T08:15:31.707Z,16.83
2022-12-07T08:17:59.852Z,16.25
2022-12-07T08:20:27.236Z,16.13
2022-12-07T08:22:54.614Z,17.47
2022-12-07T08:25:25.067Z,16.87
2022-12-07T08:27:52.613Z,17.20
2022-12-07T08:30:20.001Z,17.80
2022-12-07T08:32:48.371Z,17.77
2022-12-07T08:35:15.925Z,17.25
2022-12-07T08:37:43.433Z,17.20
2022-12-07T08:40:15.886Z,17.10
2022-12-07T08:42:45.435Z,16.92
2022-12-07T08:45:15.490Z,16.27
2022-12-07T08:47:51.185Z,17.08
2022-12-07T08:50:19.173Z,15.90
2022-12-07T08:52:51.507Z,16.10
2022-12-07T08:55:19.150Z,16.52
2022-12-07T08:57:46.460Z,17.05
2022-12-07T09:00:14.803Z,15.68
2022-12-07T09:02:42.016Z,15.30
2022-12-07T09:05:14.843Z,16.13
2022-12-07T09:07:46.444Z,16.63
2022-12-07T09:10:13.843Z,15.65
2022-12-07T09:12:41.104Z,5.97
2022-12-07T09:15:09.148Z,1.77
2022-12-07T09:17:37.180Z,1.80
2022-12-07T09:20:06.662Z,1.70
2022-12-07T09:22:34.399Z,1.40
2022-12-07T09:25:03.643Z,1.40
2022-12-07T09:27:31.494Z,1.50
2022-12-07T09:29:58.665Z,1.33
2022-12-07T09:32:25.861Z,1.75
2022-12-07T09:34:53.170Z,1.50
2022-12-07T09:37:22.680Z,1.83
2022-12-07T09:39:50.639Z,1.70
2022-12-07T09:42:36.483Z,1.77
2022-12-07T09:45:08.301Z,1.65
2022-12-07T09:47:35.576Z,1.98
2022-12-07T09:50:13.390Z,2.42
2022-12-07T09:52:42.151Z,2.10
2022-12-07T09:55:13.971Z,2.20
2022-12-07T09:57:42.528Z,2.10
2022-12-07T10:00:19.170Z,2.23
2022-12-07T10:02:57.714Z,1.80
2022-12-07T10:05:39.468Z,2.00
2022-12-07T10:08:11.016Z,1.80
2022-12-07T10:10:39.727Z,1.83
2022-12-07T10:13:13.234Z,1.90
2022-12-07T10:16:05.028Z,2.20
2022-12-07T10:18:42.536Z,1.90
2022-12-07T10:21:12.422Z,1.70
2022-12-07T10:24:11.977Z,1.60
2022-12-07T10:26:52.757Z,1.90
2022-12-07T10:29:25.507Z,1.70
2022-12-07T10:31:59.320Z,1.85
2022-12-07T10:34:41.441Z,1.90
2022-12-07T10:37:20.886Z,2.15
2022-12-07T10:39:56.455Z,2.05
2022-12-07T10:42:26.257Z,2.30
2022-12-07T10:45:22.922Z,2.35
2022-12-07T10:48:00.858Z,1.90
2022-12-07T10:50:46.271Z,2.20
2022-12-07T10:53:43.712Z,2.22
2022-12-07T10:56:16.822Z,2.10
2022-12-07T10:59:17.283Z,2.30
2022-12-07T11:02:16.304Z,2.22
2022-12-07T11:05:20.786Z,2.30
2022-12-07T11:08:05.002Z,2.00
2022-12-07T11:10:49.643Z,2.30
2022-12-07T11:13:29.400Z,2.13
2022-12-07T11:16:34.137Z,2.20
2022-12-07T11:19:32.420Z,2.30
2022-12-07T11:22:09.987Z,2.45
2022-12-07T11:24:45.937Z,2.30
2022-12-07T11:27:38.097Z,2.60
2022-12-07T11:30:14.423Z,2.45
2022-12-07T11:33:05.778Z,2.10
2022-12-07T11:36:17.751Z,2.20
2022-12-07T11:38:53.130Z,2.58
2022-12-07T11:41:27.884Z,2.50
2022-12-07T11:43:57.461Z,2.05
2022-12-07T11:46:37.188Z,2.33
2022-12-07T11:49:22.216Z,2.40
2022-12-07T11:51:53.949Z,2.38
2022-12-07T11:54:27.949Z,1.90
2022-12-07T11:57:00.481Z,1.50
2022-12-07T11:59:51.151Z,1.30
2022-12-07T12:02:26.453Z,1.30
2022-12-07T12:05:23.636Z,1.50
2022-12-07T12:11:00.517Z,1.50
2022-12-07T12:16:51.407Z,1.70
2022-12-07T12:19:35.831Z,2.30
2022-12-07T12:22:18.440Z,1.80
2022-12-07T12:24:52.028Z,1.83
2022-12-07T12:27:28.646Z,1.90
2022-12-07T12:29:59.931Z,1.80
2022-12-07T12:32:41.228Z,1.90
2022-12-07T12:35:37.457Z,1.90
2022-12-07T12:38:32.527Z,2.08
2022-12-07T12:41:00.493Z,2.00
2022-12-07T12:43:50.214Z,1.80
2022-12-07T12:46:34.492Z,1.80
2022-12-07T12:49:20.226Z,1.80
2022-12-07T12:51:58.977Z,1.60
2022-12-07T12:54:33.912Z,1.45
2022-12-07T12:57:05.805Z,1.40
2022-12-07T12:59:40.479Z,1.42
2022-12-07T13:02:33.739Z,1.30
2022-12-07T13:05:10.879Z,1.30
2022-12-07T13:07:56.479Z,1.20
2022-12-07T13:10:33.353Z,1.60
2022-12-07T13:13:15.576Z,1.30
2022-12-07T13:15:44.444Z,0.90
2022-12-07T13:18:37.573Z,0.90
2022-12-07T13:21:07.780Z,1.05
2022-12-07T13:23:47.202Z,0.90
2022-12-07T13:26:35.886Z,1.10
2022-12-07T13:29:24.136Z,1.10
2022-12-07T13:31:53.802Z,1.05
2022-12-07T13:34:38.704Z,1.20
2022-12-07T13:37:15.476Z,1.20
2022-12-07T13:39:52.052Z,1.15
2022-12-07T13:42:34.573Z,1.38
2022-12-07T13:45:55.933Z,1.08
2022-12-07T13:48:28.992Z,1.20
2022-12-07T13:50:59.734Z,1.10
2022-12-07T13:53:31.046Z,1.15
2022-12-07T13:56:00.146Z,1.30
2022-12-07T13:58:30.863Z,1.00
2022-12-07T14:00:59.217Z,0.93
2022-12-07T14:03:39.479Z,1.10
2022-12-07T14:06:27.900Z,1.40
2022-12-07T14:09:17.998Z,1.37
2022-12-07T14:11:48.887Z,0.98
2022-12-07T14:14:22.882Z,1.05
2022-12-07T14:17:19.325Z,0.93
2022-12-07T14:19:50.967Z,0.95
2022-12-07T14:22:29.063Z,1.45
2022-12-07T14:25:23.608Z,1.13
2022-12-07T14:27:53.912Z,1.50
2022-12-07T14:30:21.619Z,2.88
2022-12-07T14:32:55.636Z,3.80
2022-12-07T14:35:22.992Z,5.43
2022-12-07T14:37:50.987Z,8.57
2022-12-07T14:40:29.570Z,9.80
2022-12-07T14:43:17.748Z,11.77
2022-12-07T14:45:45.022Z,13.48
2022-12-07T14:53:55.461Z,14.32
2022-12-07T14:56:25.674Z,14.30
2022-12-07T14:58:53.044Z,12.70
2022-12-07T15:01:20.377Z,14.38
2022-12-07T15:03:47.655Z,14.80
2022-12-07T15:06:17.906Z,15.00
2022-12-07T15:08:45.521Z,13.83
2022-12-07T15:11:17.385Z,14.65
2022-12-07T15:14:03.564Z,15.05
2022-12-07T15:16:40.591Z,14.25
2022-12-07T15:19:29.179Z,15.10
2022-12-07T15:21:58.087Z,15.60
2022-12-07T15:24:25.390Z,16.98
2022-12-07T15:26:53.199Z,15.73
2022-12-07T15:29:23.247Z,15.68
2022-12-07T15:31:59.225Z,15.40
2022-12-07T15:34:30.929Z,16.67
2022-12-07T15:37:03.567Z,16.20
2022-12-07T15:39:30.852Z,15.68
2022-12-07T15:41:57.997Z,15.48
2022-12-07T15:44:43.867Z,16.00
2022-12-07T15:47:11.037Z,16.10
2022-12-07T15:49:38.277Z,16.15
2022-12-07T15:52:05.551Z,15.63
2022-12-07T15:54:33.321Z,15.35
2022-12-07T15:57:00.736Z,15.45
2022-12-07T15:59:28.877Z,15.57
2022-12-07T16:01:56.854Z,16.63
2022-12-07T16:04:24.407Z,16.50
2022-12-07T16:06:52.093Z,15.77
2022-12-07T16:09:20.056Z,17.38
2022-12-07T16:11:47.323Z,16.42
2022-12-07T16:14:14.678Z,16.25
2022-12-07T16:16:42.635Z,15.48
2022-12-07T16:19:11.773Z,16.33
2022-12-07T16:21:39.045Z,16.20
2022-12-07T16:24:06.622Z,17.08
2022-12-07T16:26:34.262Z,16.50
2022-12-07T16:29:01.509Z,15.57
2022-12-07T16:31:29.422Z,15.98
2022-12-07T16:33:58.703Z,16.02
2022-12-07T16:37:01.979Z,15.50
2022-12-07T16:39:15.642Z,16.75
2022-12-07T16:41:42.906Z,15.30
2022-12-07T16:44:13.211Z,14.00
2022-12-07T16:46:40.954Z,14.80
2022-12-07T16:49:11.939Z,14.98
2022-12-07T16:51:39.605Z,15.02
2022-12-07T16:54:06.808Z,16.13
2022-12-07T16:56:34.023Z,16.75
2022-12-07T16:59:02.112Z,17.70
2022-12-07T17:01:30.307Z,15.57
2022-12-07T17:03:59.490Z,15.38
2022-12-07T17:06:28.845Z,15.82
2022-12-07T17:08:57.587Z,16.40
2022-12-07T17:11:31.783Z,16.38
2022-12-07T17:14:17.705Z,15.63
2022-12-07T17:16:45.054Z,16.03
2022-12-07T17:19:14.866Z,16.38
2022-12-07T17:21:43.172Z,16.45
2022-12-07T17:24:13.059Z,17.38
2022-12-07T17:26:41.335Z,17.43
2022-12-07T17:29:09.680Z,16.65
2022-12-07T17:31:37.464Z,17.42
2022-12-07T17:34:05.233Z,16.25
2022-12-07T17:36:33.161Z,16.20
2022-12-07T17:39:00.439Z,17.25
2022-12-07T17:41:47.698Z,17.85
2022-12-07T17:44:17.696Z,18.13
2022-12-07T17:46:47.139Z,17.52
2022-12-07T17:49:15.135Z,16.45
2022-12-07T17:52:01.298Z,17.85
2022-12-07T17:54:29.489Z,17.10
2022-12-07T17:56:56.809Z,17.38
2022-12-07T17:59:24.428Z,17.38
2022-12-07T18:01:52.356Z,16.03
2022-12-07T18:04:19.845Z,15.90
2022-12-07T18:06:51.812Z,16.05
2022-12-07T18:09:20.960Z,18.23
2022-12-07T18:11:48.169Z,16.10
2022-12-07T18:14:16.602Z,16.92
2022-12-07T18:16:44.277Z,16.77
2022-12-07T18:19:14.440Z,16.95
2022-12-07T18:21:41.988Z,17.40
2022-12-07T18:24:11.970Z,17.08
2022-12-07T18:26:39.859Z,17.42
2022-12-07T18:29:08.508Z,16.88
2022-12-07T18:31:36.545Z,17.42
2022-12-07T18:34:14.223Z,17.33
2022-12-07T18:36:42.813Z,18.08
2022-12-07T18:39:10.093Z,16.40
2022-12-07T18:41:38.468Z,17.88
2022-12-07T18:44:06.809Z,17.88
2022-12-07T18:46:35.248Z,16.55
2022-12-07T18:49:03.459Z,17.92
2022-12-07T18:51:32.559Z,16.83
2022-12-07T18:54:01.426Z,16.48
2022-12-07T18:56:29.239Z,16.45
2022-12-07T18:59:17.532Z,17.50
2022-12-07T19:01:50.809Z,18.03
2022-12-07T19:04:18.642Z,16.23
2022-12-07T19:06:47.778Z,16.90
2022-12-07T19:09:15.737Z,16.27
2022-12-07T19:11:52.471Z,15.52
2022-12-07T19:14:29.606Z,16.42
2022-12-07T19:16:59.294Z,17.15
2022-12-07T19:19:35.610Z,16.75
2022-12-07T19:22:03.492Z,17.80
2022-12-07T19:24:30.857Z,18.50
2022-12-07T19:26:58.516Z,18.08
2022-12-07T19:29:28.092Z,20.40
2022-12-07T19:31:55.409Z,18.47
2022-12-07T19:34:22.649Z,18.63
2022-12-07T19:36:50.044Z,19.13
2022-12-07T19:39:17.260Z,19.70
2022-12-07T19:41:45.443Z,18.80
2022-12-07T19:44:15.602Z,17.75
2022-12-07T19:46:46.542Z,19.40
2022-12-07T19:49:17.195Z,20.03
2022-12-07T19:51:50.431Z,18.98
2022-12-07T19:54:19.731Z,18.65
2022-12-07T19:56:47.974Z,19.77
2022-12-07T19:59:17.054Z,18.17
2022-12-07T20:01:44.390Z,19.10
2022-12-07T20:04:19.507Z,18.92
2022-12-07T20:06:49.313Z,18.70
2022-12-07T20:09:17.074Z,19.35
2022-12-07T20:12:02.770Z,19.00
2022-12-07T20:14:31.165Z,21.10
2022-12-07T20:16:59.222Z,22.00
2022-12-07T20:19:26.453Z,21.63
2022-12-07T20:21:53.753Z,21.77
2022-12-07T20:24:24.174Z,32.47
2022-12-07T20:26:53.060Z,24.40
2022-12-07T20:29:22.498Z,22.35
2022-12-07T20:31:51.626Z,21.10
2022-12-07T20:34:19.099Z,22.38
2022-12-07T20:36:46.823Z,27.40
2022-12-07T20:39:14.517Z,26.70
2022-12-07T20:42:00.586Z,22.10
2022-12-07T20:44:27.947Z,20.25
2022-12-07T20:46:55.457Z,19.42
2022-12-07T20:49:22.942Z,19.25
2022-12-07T20:51:51.003Z,18.58
2022-12-07T20:54:18.254Z,19.33
2022-12-07T20:56:45.629Z,18.38
2022-12-07T20:59:15.225Z,18.90
2022-12-07T21:01:43.189Z,19.15
2022-12-07T21:04:12.165Z,18.60
2022-12-07T21:06:39.637Z,19.73
2022-12-07T21:09:07.182Z,18.30
2022-12-07T21:11:34.456Z,18.60
2022-12-07T21:14:01.869Z,17.65
2022-12-07T21:16:30.639Z,19.63
2022-12-07T21:19:02.292Z,18.45
2022-12-07T21:21:30.798Z,18.10
2022-12-07T21:24:02.571Z,19.40
2022-12-07T21:26:33.804Z,19.25
2022-12-07T21:29:03.076Z,18.48
2022-12-07T21:31:30.539Z,18.98
2022-12-07T21:33:57.828Z,18.50
2022-12-07T21:36:26.761Z,18.73
2022-12-07T21:38:54.320Z,19.65
2022-12-07T21:41:24.254Z,18.00
2022-12-07T21:43:52.629Z,20.00
2022-12-07T21:46:21.640Z,18.50
2022-12-07T21:49:00.248Z,19.20
2022-12-07T21:51:29.589Z,21.70
2022-12-07T21:53:58.716Z,19.35
2022-12-07T21:56:32.578Z,20.60
2022-12-07T21:59:03.591Z,20.83
2022-12-07T22:01:35.552Z,20.27
2022-12-07T22:04:05.647Z,18.48
2022-12-07T22:06:34.558Z,18.92
2022-12-07T22:09:02.220Z,19.35
2022-12-07T22:11:29.404Z,18.65
2022-12-07T22:14:15.197Z,19.17
2022-12-07T22:16:42.697Z,18.65
2022-12-07T22:19:10.121Z,19.10
2022-12-07T22:21:37.390Z,19.52
2022-12-07T22:24:05.530Z,19.42
2022-12-07T22:26:33.239Z,19.73
2022-12-07T22:29:01.559Z,20.80
2022-12-07T22:31:29.321Z,21.27
2022-12-07T22:33:56.619Z,20.20
2022-12-07T22:36:23.805Z,20.47
2022-12-07T22:38:51.072Z,21.08
2022-12-07T22:41:29.987Z,21.55
2022-12-07T22:43:58.196Z,21.30
2022-12-07T22:46:26.548Z,20.73
2022-12-07T22:48:54.173Z,22.00
2022-12-07T22:51:30.368Z,20.73
2022-12-07T22:54:00.123Z,20.93
2022-12-07T22:56:28.889Z,21.02
2022-12-07T22:58:56.728Z,19.90
2022-12-07T23:01:24.745Z,20.65
2022-12-07T23:03:52.706Z,22.33
2022-12-07T23:06:25.688Z,20.15
2022-12-07T23:08:55.748Z,22.37
2022-12-07T23:11:44.679Z,21.02
2022-12-07T23:14:15.724Z,22.55
2022-12-07T23:16:43.110Z,21.40
2022-12-07T23:19:10.523Z,19.13
2022-12-07T23:21:37.781Z,19.25
2022-12-07T23:24:05.436Z,20.08
2022-12-07T23:26:34.787Z,18.88
2022-12-07T23:29:02.008Z,19.77
2022-12-07T23:31:29.283Z,19.87
2022-12-07T23:33:56.503Z,19.87
2022-12-07T23:36:26.180Z,20.00
2022-12-07T23:38:55.156Z,18.77
2022-12-07T23:41:28.746Z,19.17
2022-12-07T23:43:58.897Z,19.52
2022-12-07T23:46:29.736Z,18.77
2022-12-07T23:48:58.748Z,19.73
2022-12-07T23:51:25.975Z,20.23
2022-12-07T23:53:54.206Z,19.90
2022-12-07T23:56:24.211Z,19.77
2022-12-07T23:58:52.794Z,19.80
